»·PEaware :: ASA620 KPDX-KLAS

ASA620 :: KPDX-KLAS

FLIGHT INFORMATION

Flight Status: Arrived
Operator:
Alaska Airlines
More flights by this operator :: More flights under this callsign
Pilot: Colin A. (19898)
Aircraft: MCDONNELL-DOUGLAS MD-82
(MD82)
More flights by this aircraft type
Origin: KPDX Portland Intl
United States
Destination: KLAS McCarran Intl
United States
More flights between these airports :: More routes between these airports
Route: CASCD2 PAWLI YERIN LIDAT BTY SUNST4
File this flight plan on PilotEdge
Remarks: PBN / A1B2 DOF / 180831 REG / N882SB EET / KZOA0045 KZLA0118 OPR / ASA PER / C RMK / TCAS SIMBRIEF
Altitude:
(Current/Filed)
33,000ft
Speed:
(Current/Filed)
449kts
Departed: 03-Sep-18 09:59 AM
Arrived: 03-Sep-18 11:57 AM
Distance/Time
Traveled:
663nm/1:58
Distance/Time
To Go:
Arrived

Flight Plot

Page will automatically refresh every two minutes.

Flight plan parsing failed; only flown route is shown


Map Options




Map Legend


Flown Route
Filed Route
Departure Airport
Arrival Airport
Navaid (VOR, NDB)
Fix

Horizontal Profiles

Position Reports

Time Latitude Longitude Heading Altitude Ground
Speed
03-Sep-18 09:41 45.589133 -122.594998 210 39ft 0kts
03-Sep-18 09:42 45.589133 -122.594998 210 39ft 0kts
03-Sep-18 09:43 45.589133 -122.594998 210 39ft 0kts
03-Sep-18 09:44 45.589133 -122.594998 210 39ft 0kts
03-Sep-18 09:45 45.589133 -122.594998 210 39ft 0kts
03-Sep-18 09:46 45.589133 -122.594998 210 39ft 0kts
03-Sep-18 09:47 45.589133 -122.594998 210 39ft 0kts
03-Sep-18 09:48 45.589456 -122.594718 213 39ft 2kts
03-Sep-18 09:49 45.589516 -122.594050 299 39ft 2kts
03-Sep-18 09:50 45.589490 -122.593984 299 39ft 0kts
03-Sep-18 09:51 45.589491 -122.593988 299 39ft 0kts
03-Sep-18 09:52 45.589492 -122.593991 299 39ft 0kts
03-Sep-18 09:53 45.590751 -122.597084 299 39ft 20kts
03-Sep-18 09:54 45.591676 -122.600738 272 39ft 9kts
03-Sep-18 09:55 45.589124 -122.602557 119 39ft 19kts
03-Sep-18 09:57 45.585297 -122.592739 119 39ft 22kts
03-Sep-18 09:58 45.581578 -122.583641 173 39ft 10kts
03-Sep-18 09:59 45.581373 -122.583714 204 39ft 0kts
03-Sep-18 10:00 45.581519 -122.586444 298 39ft 28kts
03-Sep-18 10:01 45.597842 -122.629620 297 1108ft 200kts
03-Sep-18 10:02 45.628398 -122.699674 302 3315ft 227kts
03-Sep-18 10:03 45.661478 -122.782254 290 4856ft 250kts
03-Sep-18 10:04 45.653315 -122.885435 260 6673ft 271kts
03-Sep-18 10:05 45.594335 -122.938637 167 8568ft 298kts
03-Sep-18 10:06 45.522222 -122.878109 129 10243ft 317kts
03-Sep-18 10:07 45.465669 -122.772602 131 11448ft 353kts
03-Sep-18 10:08 45.397791 -122.667056 134 13223ft 366kts
03-Sep-18 10:09 45.328134 -122.558983 133 15102ft 376kts
03-Sep-18 10:10 45.256238 -122.447820 133 16961ft 387kts
03-Sep-18 10:11 45.182165 -122.333762 133 18721ft 397kts
03-Sep-18 10:12 45.106195 -122.217534 134 20235ft 407kts
03-Sep-18 10:13 45.018665 -122.117277 154 21611ft 410kts
03-Sep-18 10:14 44.914479 -122.048411 158 22855ft 416kts
03-Sep-18 10:15 44.808400 -121.979585 157 24006ft 423kts
03-Sep-18 10:16 44.701292 -121.908614 156 25053ft 428kts
03-Sep-18 10:17 44.592523 -121.836178 156 25993ft 436kts
03-Sep-18 10:18 44.482182 -121.762828 156 26918ft 441kts
03-Sep-18 10:19 44.372930 -121.690875 156 27793ft 446kts
03-Sep-18 10:20 44.259403 -121.616412 156 28597ft 452kts
03-Sep-18 10:21 44.145224 -121.541634 156 29303ft 457kts
03-Sep-18 10:22 44.029102 -121.466597 156 29978ft 461kts
03-Sep-18 10:23 43.913310 -121.391728 156 30858ft 459kts
03-Sep-18 10:24 43.797866 -121.317002 155 31726ft 455kts
03-Sep-18 10:25 43.683321 -121.243293 155 32416ft 455kts
03-Sep-18 10:26 43.568554 -121.170591 156 33141ft 454kts
03-Sep-18 10:27 43.455743 -121.093461 153 33198ft 451kts
03-Sep-18 10:28 43.341905 -121.019657 156 33199ft 451kts
03-Sep-18 10:29 43.227091 -120.950884 156 33200ft 450kts
03-Sep-18 10:30 43.110784 -120.886464 161 33202ft 450kts
03-Sep-18 10:31 42.992280 -120.831252 161 33203ft 450kts
03-Sep-18 10:32 42.874117 -120.773373 160 33205ft 450kts
03-Sep-18 10:33 42.756741 -120.715287 160 33206ft 450kts
03-Sep-18 10:34 42.638962 -120.656103 160 33208ft 449kts
03-Sep-18 10:35 42.521382 -120.598018 160 33211ft 450kts
03-Sep-18 10:36 42.403701 -120.540612 160 33213ft 450kts
03-Sep-18 10:37 42.286059 -120.482578 159 33215ft 449kts
03-Sep-18 10:38 42.168550 -120.425218 160 33216ft 449kts
03-Sep-18 10:39 42.051229 -120.368512 160 33215ft 449kts
03-Sep-18 10:40 41.933416 -120.311874 160 33212ft 449kts
03-Sep-18 10:41 41.815882 -120.254919 160 33207ft 449kts
03-Sep-18 10:42 41.698368 -120.198092 160 33203ft 450kts
03-Sep-18 10:43 41.580365 -120.141523 160 33200ft 450kts
03-Sep-18 10:44 41.462427 -120.085418 160 33197ft 451kts
03-Sep-18 10:45 41.343984 -120.029269 161 33191ft 451kts
03-Sep-18 10:45 41.245646 -119.982479 161 33188ft 450kts
03-Sep-18 10:47 41.107682 -119.917985 162 33184ft 451kts
03-Sep-18 10:48 40.989709 -119.862454 162 33181ft 451kts
03-Sep-18 10:48 40.890830 -119.816627 162 33178ft 452kts
03-Sep-18 10:49 40.771922 -119.761687 163 33174ft 453kts
03-Sep-18 10:50 40.652803 -119.706557 163 33163ft 455kts
03-Sep-18 10:52 40.513821 -119.642191 163 33160ft 455kts
03-Sep-18 10:52 40.413742 -119.596890 164 33157ft 455kts
03-Sep-18 10:53 40.294347 -119.542393 164 33155ft 455kts
03-Sep-18 10:54 40.174400 -119.487988 164 33154ft 456kts
03-Sep-18 10:55 40.054613 -119.433901 164 33153ft 456kts
03-Sep-18 10:56 39.934180 -119.379715 164 33150ft 459kts
03-Sep-18 10:57 39.813802 -119.325762 165 33150ft 458kts
03-Sep-18 10:58 39.693065 -119.272307 165 33150ft 458kts
03-Sep-18 10:59 39.572054 -119.219179 165 33148ft 459kts
03-Sep-18 11:00 39.451236 -119.165372 165 33148ft 459kts
03-Sep-18 11:01 39.329977 -119.112159 165 33148ft 460kts
03-Sep-18 11:02 39.209483 -119.056939 159 33147ft 464kts
03-Sep-18 11:03 39.091317 -118.989180 163 33149ft 463kts
03-Sep-18 11:04 38.968980 -118.938664 161 33154ft 464kts
03-Sep-18 11:05 38.865948 -118.836694 135 33147ft 476kts
03-Sep-18 11:06 38.770330 -118.719654 141 33148ft 474kts
03-Sep-18 11:07 38.669185 -118.610456 141 33137ft 475kts
03-Sep-18 11:08 38.569423 -118.499692 140 33136ft 476kts
03-Sep-18 11:09 38.468945 -118.389283 141 33143ft 476kts
03-Sep-18 11:10 38.368371 -118.279058 141 33163ft 477kts
03-Sep-18 11:11 38.267441 -118.168611 141 33189ft 479kts
03-Sep-18 11:12 38.166018 -118.058189 141 33164ft 478kts
03-Sep-18 11:13 38.064523 -117.948559 141 33173ft 478kts
03-Sep-18 11:14 37.963293 -117.839360 141 33176ft 479kts
03-Sep-18 11:15 37.861719 -117.730001 141 33182ft 479kts
03-Sep-18 11:16 37.760210 -117.620549 142 33178ft 478kts
03-Sep-18 11:17 37.659019 -117.511368 140 33180ft 480kts
03-Sep-18 11:18 37.557993 -117.401883 142 33200ft 478kts
03-Sep-18 11:19 37.455333 -117.295577 142 33198ft 478kts
03-Sep-18 11:20 37.348271 -117.197417 150 33183ft 476kts
03-Sep-18 11:21 37.236723 -117.107316 148 33146ft 476kts
03-Sep-18 11:22 37.126791 -117.014290 148 33140ft 476kts
03-Sep-18 11:23 37.017323 -116.920795 148 33123ft 477kts
03-Sep-18 11:24 36.907542 -116.828387 148 33109ft 476kts
03-Sep-18 11:25 36.797476 -116.735295 141 33097ft 479kts
03-Sep-18 11:26 36.707743 -116.611841 128 32279ft 488kts
03-Sep-18 11:27 36.650817 -116.526141 131 30211ft 481kts
03-Sep-18 11:28 36.627825 -116.493816 132 29453ft 476kts
03-Sep-18 11:29 36.574286 -116.419668 131 27597ft 466kts
03-Sep-18 11:30 36.504540 -116.320814 130 25245ft 447kts
03-Sep-18 11:31 36.424425 -116.207547 131 22525ft 425kts
03-Sep-18 11:32 36.348136 -116.101061 130 19931ft 401kts
03-Sep-18 11:33 36.276292 -116.000508 130 17507ft 377kts
03-Sep-18 11:34 36.209940 -115.907446 126 16052ft 330kts
03-Sep-18 11:35 36.174213 -115.812633 111 15205ft 288kts
03-Sep-18 11:36 36.143621 -115.715065 112 14308ft 302kts
03-Sep-18 11:37 36.110342 -115.620461 112 13324ft 298kts
03-Sep-18 11:38 36.079844 -115.526311 111 12246ft 292kts
03-Sep-18 11:39 36.050135 -115.433866 111 11248ft 281kts
03-Sep-18 11:40 36.028286 -115.345119 97 10669ft 271kts
03-Sep-18 11:41 36.022231 -115.254424 95 9655ft 267kts
03-Sep-18 11:42 36.015947 -115.162483 95 8408ft 267kts
03-Sep-18 11:43 36.010119 -115.073996 95 8044ft 255kts
03-Sep-18 11:44 36.004738 -114.986541 95 8033ft 256kts
03-Sep-18 11:45 35.999432 -114.898764 94 8026ft 255kts
03-Sep-18 11:46 35.994147 -114.811866 95 8015ft 254kts
03-Sep-18 11:47 35.988348 -114.724891 95 8012ft 253kts
03-Sep-18 11:48 35.990242 -114.639007 57 8009ft 256kts
03-Sep-18 11:49 36.053311 -114.617404 339 7973ft 210kts
03-Sep-18 11:50 36.079940 -114.674197 280 8014ft 197kts
03-Sep-18 11:51 36.080573 -114.741404 263 8007ft 195kts
03-Sep-18 11:52 36.076351 -114.807744 267 7047ft 191kts
03-Sep-18 11:53 36.076603 -114.871952 269 6053ft 178kts
03-Sep-18 11:54 36.076859 -114.933048 268 5182ft 176kts
03-Sep-18 11:55 36.076614 -114.993030 268 4282ft 173kts
03-Sep-18 11:56 36.073433 -115.052492 264 3202ft 172kts
03-Sep-18 11:57 36.073622 -115.112313 268 2429ft 157kts
03-Sep-18 11:58 36.074583 -115.145529 299 2190ft 14kts
03-Sep-18 11:59 36.074714 -115.145820 299 2190ft 0kts
03-Sep-18 12:00 36.077442 -115.146620 337 2190ft 12kts
03-Sep-18 12:02 36.078254 -115.143002 90 2190ft 0kts
03-Sep-18 12:03 36.078254 -115.142931 90 2190ft 0kts
03-Sep-18 12:04 36.078291 -115.136654 90 2190ft 20kts
03-Sep-18 12:05 36.079127 -115.135361 11 2190ft 7kts
03-Sep-18 12:06 36.079803 -115.135330 0 2190ft 0kts
03-Sep-18 12:07 36.079803 -115.135330 0 2190ft 0kts
03-Sep-18 12:08 36.079803 -115.135330 0 2190ft 0kts
03-Sep-18 12:09 36.079803 -115.135330 0 2190ft 0kts
03-Sep-18 12:10 36.079803 -115.135330 0 2190ft 0kts
03-Sep-18 12:11 36.079803 -115.135330 0 2190ft 0kts
03-Sep-18 12:12 36.079803 -115.135330 0 2190ft 0kts
03-Sep-18 12:13 36.079803 -115.135330 0 2190ft 0kts

Navigation Log

Ident Type
Flight plan parsing failed, navigation log unavailable